Time;durP1;ratioP1;P1;durP2;ratioP2;P2;SDS_P1;SDS_P2;PMS_P1;PMS_P2;Temp;Humidity;BMP_temperature;BMP_pressure;BME280_temperature;BME280_humidity;BME280_pressure;Samples;Min_cycle;Max_cycle;Signal;HPM_P1;HPM_P2
2023/09/11 00:00:39;;;;;;;3.33;2.92;;;25.80;64.40;;;;;;4850047;28;90059;-88
2023/09/11 00:03:04;;;;;;;3.28;2.97;;;25.80;64.40;;;;;;4854538;28;90414;-88
2023/09/11 00:05:30;;;;;;;7.15;3.60;;;25.80;64.20;;;;;;4857027;28;94084;-88
2023/09/11 00:07:56;;;;;;;3.65;3.17;;;25.80;64.40;;;;;;4854657;28;89617;-88
2023/09/11 00:10:22;;;;;;;3.92;3.53;;;25.80;64.40;;;;;;4870348;28;88940;-88
2023/09/11 00:12:47;;;;;;;4.75;3.47;;;25.80;64.40;;;;;;4870257;28;88670;-88
2023/09/11 00:15:13;;;;;;;4.68;3.30;;;25.80;64.50;;;;;;4853039;28;87802;-88
2023/09/11 00:17:38;;;;;;;4.05;3.60;;;25.80;64.40;;;;;;4851816;28;88342;-88
2023/09/11 00:20:08;;;;;;;5.07;3.53;;;25.80;64.40;;;;;;4870933;28;87827;-87
2023/09/11 00:22:34;;;;;;;4.43;4.03;;;25.80;64.60;;;;;;4869039;28;87947;-88
2023/09/11 00:24:59;;;;;;;4.63;3.40;;;25.70;64.60;;;;;;4853394;28;88054;-87
2023/09/11 00:27:26;;;;;;;3.70;3.38;;;25.80;64.80;;;;;;4869265;28;87457;-88
2023/09/11 00:29:51;;;;;;;4.55;3.60;;;25.80;64.60;;;;;;4852253;28;90842;-88
2023/09/11 00:32:17;;;;;;;3.83;3.47;;;25.70;64.50;;;;;;4853118;28;90104;-88
2023/09/11 00:34:43;;;;;;;4.38;3.97;;;25.70;64.70;;;;;;4866833;28;89100;-88
2023/09/11 00:37:09;;;;;;;4.30;3.88;;;25.70;65.00;;;;;;4853488;28;89867;-88
2023/09/11 00:39:34;;;;;;;5.25;3.83;;;25.70;64.80;;;;;;4870541;28;90511;-88
2023/09/11 00:42:00;;;;;;;5.45;4.30;;;25.70;64.90;;;;;;4872765;28;95428;-88
2023/09/11 00:44:26;;;;;;;5.40;3.55;;;25.70;64.90;;;;;;4891426;28;87777;-88
2023/09/11 00:46:52;;;;;;;3.83;3.53;;;25.70;65.10;;;;;;4891496;28;90428;-87
2023/09/11 00:49:19;;;;;;;4.45;3.70;;;25.70;64.90;;;;;;4889720;28;87228;-88
2023/09/11 00:51:45;;;;;;;4.22;3.40;;;25.70;65.00;;;;;;4891788;28;87162;-88
2023/09/11 00:54:12;;;;;;;4.13;3.60;;;25.70;65.00;;;;;;4899542;28;87514;-88
2023/09/11 00:56:38;;;;;;;4.93;4.05;;;25.70;64.80;;;;;;4890345;28;89382;-89
2023/09/11 00:59:03;;;;;;;4.38;3.97;;;25.70;64.80;;;;;;4887872;28;89341;-87
2023/09/11 01:01:29;;;;;;;4.38;3.85;;;25.60;65.00;;;;;;4876004;28;91026;-88
2023/09/11 01:03:55;;;;;;;4.25;3.50;;;25.60;65.10;;;;;;4875600;28;88566;-88
2023/09/11 01:06:21;;;;;;;4.47;3.80;;;25.70;65.00;;;;;;4877130;28;89445;-88
2023/09/11 01:08:47;;;;;;;4.20;3.80;;;25.60;65.10;;;;;;4893716;28;87725;-88
2023/09/11 01:11:12;;;;;;;4.63;3.42;;;25.60;65.10;;;;;;4891094;28;87526;-88
2023/09/11 01:13:38;;;;;;;5.35;3.60;;;25.60;65.20;;;;;;4889917;28;88016;-88
2023/09/11 01:16:14;;;;;;;6.22;4.03;;;25.60;65.00;;;;;;4863164;28;89078;-88
2023/09/11 01:18:57;;;;;;;4.25;3.63;;;25.60;65.20;;;;;;4889566;28;88872;-88
2023/09/11 01:21:40;;;;;;;5.07;4.25;;;25.60;65.30;;;;;;4891453;28;88757;-88
2023/09/11 01:24:27;;;;;;;3.90;3.50;;;25.60;65.30;;;;;;4880491;28;89251;-88
2023/09/11 01:27:23;;;;;;;5.03;4.20;;;25.60;65.40;;;;;;4890229;28;89766;-87
2023/09/11 01:29:51;;;;;;;3.63;3.30;;;25.60;65.70;;;;;;4893569;28;87902;-88
2023/09/11 01:32:18;;;;;;;3.42;3.13;;;25.60;65.30;;;;;;4891568;28;88898;-88
2023/09/11 01:34:44;;;;;;;4.18;3.75;;;25.60;65.20;;;;;;4890232;28;87972;-88
2023/09/11 01:37:10;;;;;;;4.65;3.83;;;25.60;65.40;;;;;;4871052;28;88497;-88
2023/09/11 01:39:35;;;;;;;4.30;3.90;;;25.60;65.20;;;;;;4891286;28;87967;-88
2023/09/11 01:42:09;;;;;;;3.80;3.38;;;25.60;65.20;;;;;;4868299;28;91112;-87
2023/09/11 01:44:44;;;;;;;4.10;3.58;;;25.60;65.20;;;;;;4889292;28;87472;-88
2023/09/11 01:47:12;;;;;;;4.53;4.00;;;25.60;65.30;;;;;;4890738;28;87678;-88
2023/09/11 01:49:38;;;;;;;3.95;3.42;;;25.60;65.20;;;;;;4890584;28;91714;-87
2023/09/11 01:52:06;;;;;;;4.75;3.00;;;25.60;65.30;;;;;;4891713;28;88892;-88
2023/09/11 01:54:33;;;;;;;3.42;3.13;;;25.60;65.30;;;;;;4893890;28;87964;-88
2023/09/11 01:56:58;;;;;;;4.10;3.53;;;25.50;65.20;;;;;;4889893;28;88225;-86
2023/09/11 01:59:24;;;;;;;3.92;3.53;;;25.60;65.40;;;;;;4890071;28;88026;-88
2023/09/11 02:01:50;;;;;;;3.95;3.55;;;25.50;65.30;;;;;;4888729;28;92201;-88
2023/09/11 02:04:16;;;;;;;3.95;3.20;;;25.50;65.30;;;;;;4889619;28;88077;-88
2023/09/11 02:06:41;;;;;;;3.90;3.45;;;25.60;65.20;;;;;;4871079;28;89667;-88
2023/09/11 02:09:07;;;;;;;5.03;4.30;;;25.50;65.40;;;;;;4893984;28;87852;-88
2023/09/11 02:11:32;;;;;;;5.15;3.90;;;25.60;65.20;;;;;;4892693;28;87507;-87
2023/09/11 02:13:58;;;;;;;4.15;3.75;;;25.50;65.40;;;;;;4893661;28;88777;-88
2023/09/11 02:16:23;;;;;;;4.53;4.10;;;25.50;65.20;;;;;;4888519;28;88352;-88
2023/09/11 02:18:49;;;;;;;3.50;3.17;;;25.50;65.20;;;;;;4888092;28;87507;-88
2023/09/11 02:21:15;;;;;;;4.15;3.78;;;25.50;65.40;;;;;;4878184;28;88296;-88
2023/09/11 02:23:41;;;;;;;4.53;4.10;;;25.50;65.40;;;;;;4873355;28;87955;-88
2023/09/11 02:26:07;;;;;;;3.70;3.40;;;25.50;65.50;;;;;;4873494;28;89823;-88
2023/09/11 02:28:33;;;;;;;3.72;3.30;;;25.50;65.40;;;;;;4893985;28;88084;-88
2023/09/11 02:30:59;;;;;;;3.97;3.58;;;25.50;65.20;;;;;;4872904;28;90585;-89
2023/09/11 02:33:25;;;;;;;4.97;3.67;;;25.50;65.20;;;;;;4887558;28;87596;-87
2023/09/11 02:35:57;;;;;;;5.75;4.22;;;25.50;65.50;;;;;;4870583;28;89559;-88
2023/09/11 02:38:23;;;;;;;3.53;3.22;;;25.50;65.40;;;;;;4886494;28;89024;-89
2023/09/11 02:40:49;;;;;;;3.72;3.42;;;25.50;65.40;;;;;;4872185;28;90101;-88
2023/09/11 02:43:14;;;;;;;3.97;3.58;;;25.50;65.40;;;;;;4889354;28;87531;-88
2023/09/11 02:45:44;;;;;;;3.67;3.22;;;25.50;65.40;;;;;;4893561;28;88043;-88
2023/09/11 02:48:10;;;;;;;3.70;3.03;;;25.50;65.30;;;;;;4891825;28;87834;-88
2023/09/11 02:50:37;;;;;;;5.10;3.20;;;25.50;65.30;;;;;;4888559;28;89173;-87
2023/09/11 02:53:07;;;;;;;3.65;3.20;;;25.50;65.30;;;;;;4872563;28;87698;-87
2023/09/11 02:55:32;;;;;;;3.88;3.42;;;25.50;65.60;;;;;;4871902;28;89586;-88
2023/09/11 03:16:13;;;;;;;10.55;3.55;;;25.50;65.40;;;;;;5205396;22;88127;-85
2023/09/11 03:18:39;;;;;;;4.28;3.60;;;25.50;65.50;;;;;;4911067;28;90698;-85
2023/09/11 03:21:07;;;;;;;3.50;3.20;;;25.50;65.30;;;;;;4932041;28;87204;-84
2023/09/11 03:23:33;;;;;;;3.90;3.50;;;25.50;65.40;;;;;;4911122;28;87761;-85
2023/09/11 03:25:59;;;;;;;3.90;3.60;;;25.50;65.30;;;;;;4930675;28;88604;-85
2023/09/11 03:28:27;;;;;;;3.63;3.33;;;25.50;65.60;;;;;;4925695;28;89443;-84
2023/09/11 03:30:53;;;;;;;3.50;3.20;;;25.50;65.40;;;;;;4908799;28;91557;-85
2023/09/11 03:33:19;;;;;;;4.70;3.25;;;25.50;66.20;;;;;;4927584;28;87944;-85
2023/09/11 03:35:48;;;;;;;3.38;3.08;;;25.50;65.70;;;;;;4915477;28;87515;-85
2023/09/11 03:38:14;;;;;;;4.50;3.63;;;25.50;65.50;;;;;;4917139;28;88330;-85
2023/09/11 03:40:41;;;;;;;3.42;3.05;;;25.50;65.50;;;;;;4911784;28;88283;-85
2023/09/11 03:43:07;;;;;;;4.80;3.22;;;25.50;65.50;;;;;;4918263;28;88097;-84
2023/09/11 03:45:33;;;;;;;4.72;3.72;;;25.50;65.40;;;;;;4915362;28;88685;-85
2023/09/11 03:47:58;;;;;;;3.72;3.40;;;25.50;65.50;;;;;;4929851;28;88302;-85
2023/09/11 03:50:24;;;;;;;4.15;3.75;;;25.50;65.70;;;;;;4918723;28;90480;-85
2023/09/11 03:52:50;;;;;;;4.95;3.85;;;25.50;65.40;;;;;;4928767;28;88944;-86
2023/09/11 03:55:16;;;;;;;3.88;3.25;;;25.40;65.20;;;;;;4930331;28;88031;-85
2023/09/11 03:57:42;;;;;;;5.70;3.92;;;25.40;65.40;;;;;;4912668;28;90511;-84
2023/09/11 04:00:08;;;;;;;3.42;3.13;;;25.40;65.10;;;;;;4930807;28;88067;-84
2023/09/11 04:02:34;;;;;;;3.83;3.28;;;25.50;65.30;;;;;;4926383;28;87568;-86
2023/09/11 04:04:59;;;;;;;4.32;3.78;;;25.50;65.40;;;;;;4928205;28;88683;-85
2023/09/11 04:07:25;;;;;;;3.47;3.17;;;25.40;65.20;;;;;;4930698;28;92394;-85
2023/09/11 04:09:51;;;;;;;3.45;3.00;;;25.50;65.40;;;;;;4928581;28;87729;-86
2023/09/11 04:12:17;;;;;;;3.28;2.97;;;25.40;65.30;;;;;;4931385;28;87802;-85
2023/09/11 04:14:45;;;;;;;5.07;3.65;;;25.40;65.30;;;;;;4935143;28;88088;-85
2023/09/11 04:17:11;;;;;;;4.05;3.30;;;25.40;65.30;;;;;;4935931;28;89225;-85
2023/09/11 04:19:40;;;;;;;3.20;2.90;;;25.40;65.30;;;;;;4916777;28;90226;-85
2023/09/11 04:22:06;;;;;;;3.22;2.92;;;25.40;65.20;;;;;;4931320;28;88417;-85
2023/09/11 04:24:33;;;;;;;3.58;3.28;;;25.40;65.20;;;;;;4933419;28;88000;-84
2023/09/11 04:26:58;;;;;;;3.63;3.08;;;25.40;65.90;;;;;;4917713;28;91085;-85
2023/09/11 04:29:25;;;;;;;4.03;3.45;;;25.40;65.20;;;;;;4931492;28;88168;-85
2023/09/11 04:31:50;;;;;;;3.75;3.10;;;25.40;65.40;;;;;;4935374;28;87619;-85
2023/09/11 04:34:19;;;;;;;3.17;2.88;;;25.40;65.20;;;;;;4913133;28;89753;-85
2023/09/11 04:36:45;;;;;;;3.95;3.60;;;25.40;65.10;;;;;;4935200;28;88142;-85
2023/09/11 04:39:13;;;;;;;4.18;3.30;;;25.40;65.40;;;;;;4933065;28;88339;-85
2023/09/11 04:41:39;;;;;;;3.45;3.15;;;25.40;65.30;;;;;;4936590;28;88797;-85
2023/09/11 04:44:05;;;;;;;4.00;3.40;;;25.40;65.20;;;;;;4917096;28;88322;-85
2023/09/11 04:46:31;;;;;;;3.65;3.30;;;25.40;65.30;;;;;;4931500;28;88181;-85
2023/09/11 04:48:57;;;;;;;3.45;3.15;;;25.40;65.20;;;;;;4932719;28;89360;-85
2023/09/11 04:51:22;;;;;;;4.18;3.58;;;25.40;65.30;;;;;;4932461;28;87040;-85
2023/09/11 04:53:48;;;;;;;4.65;3.45;;;25.40;65.10;;;;;;4929955;28;87591;-85
2023/09/11 04:56:14;;;;;;;4.25;3.38;;;25.40;65.40;;;;;;4936163;28;88927;-85
2023/09/11 04:58:39;;;;;;;3.75;3.40;;;25.40;65.20;;;;;;4912473;28;89421;-86
2023/09/11 05:01:05;;;;;;;3.60;3.25;;;25.40;65.10;;;;;;4918234;28;92266;-85
2023/09/11 05:03:31;;;;;;;3.63;3.30;;;25.40;65.20;;;;;;4931931;28;87735;-84
2023/09/11 05:05:56;;;;;;;3.78;3.38;;;25.40;65.10;;;;;;4932495;28;89346;-85
2023/09/11 05:08:22;;;;;;;3.15;2.80;;;25.30;65.20;;;;;;4930184;28;90027;-85
2023/09/11 05:10:48;;;;;;;4.20;3.08;;;25.40;65.30;;;;;;4931855;28;87290;-85
2023/09/11 05:13:14;;;;;;;4.57;3.92;;;25.30;65.20;;;;;;4928485;28;87211;-85
2023/09/11 05:15:40;;;;;;;4.07;3.33;;;25.30;65.20;;;;;;4929122;28;87811;-85
2023/09/11 05:18:06;;;;;;;4.20;3.72;;;25.40;65.30;;;;;;4931389;28;88140;-85
2023/09/11 05:20:31;;;;;;;5.03;3.78;;;25.30;65.20;;;;;;4931899;28;86952;-85
2023/09/11 05:22:57;;;;;;;3.63;3.28;;;25.40;65.20;;;;;;4931835;28;87370;-85
2023/09/11 05:25:24;;;;;;;3.33;3.03;;;25.40;65.20;;;;;;4934865;28;89769;-85
2023/09/11 05:27:50;;;;;;;3.63;3.33;;;25.30;65.10;;;;;;4935938;28;88071;-84
2023/09/11 05:30:15;;;;;;;3.92;3.53;;;25.30;65.20;;;;;;4933964;28;88464;-84
2023/09/11 05:32:41;;;;;;;3.30;3.00;;;25.40;65.20;;;;;;4916263;28;89961;-84
2023/09/11 05:35:07;;;;;;;3.83;3.42;;;25.40;65.20;;;;;;4929676;28;87509;-85
2023/09/11 05:37:33;;;;;;;4.72;3.65;;;25.40;66.10;;;;;;4928065;28;88139;-85
2023/09/11 05:40:00;;;;;;;4.88;3.53;;;25.40;65.20;;;;;;4930354;28;87832;-85
2023/09/11 05:42:26;;;;;;;3.40;3.10;;;25.40;65.10;;;;;;4911043;28;87626;-85
2023/09/11 05:44:52;;;;;;;3.22;2.90;;;25.40;65.30;;;;;;4930188;28;87856;-85
2023/09/11 05:47:18;;;;;;;4.20;3.10;;;25.40;65.20;;;;;;4928263;28;87947;-85
2023/09/11 05:49:43;;;;;;;3.90;3.50;;;25.40;65.30;;;;;;4913878;28;87738;-84
2023/09/11 05:52:09;;;;;;;4.10;3.70;;;25.40;65.30;;;;;;4929153;28;88206;-84
2023/09/11 05:54:35;;;;;;;3.63;3.33;;;25.40;65.10;;;;;;4929067;28;89159;-85
2023/09/11 05:57:05;;;;;;;11.35;3.78;;;25.40;65.20;;;;;;4929976;28;94049;-85
2023/09/11 05:59:31;;;;;;;3.45;3.15;;;25.40;65.00;;;;;;4932637;28;87290;-85
2023/09/11 06:01:56;;;;;;;3.92;3.55;;;25.40;65.00;;;;;;4929762;28;88156;-86
2023/09/11 06:04:22;;;;;;;3.28;2.97;;;25.40;65.20;;;;;;4931249;28;88810;-88
2023/09/11 06:06:48;;;;;;;3.45;3.15;;;25.40;65.00;;;;;;4914924;28;90598;-86
2023/09/11 06:09:13;;;;;;;4.80;3.08;;;25.40;65.00;;;;;;4931265;28;87955;-89
2023/09/11 06:11:39;;;;;;;3.75;3.45;;;25.40;65.10;;;;;;4931718;28;87981;-86
2023/09/11 06:14:09;;;;;;;4.47;3.45;;;25.40;65.00;;;;;;4930513;28;88111;-88
2023/09/11 06:16:34;;;;;;;4.00;3.60;;;25.40;65.00;;;;;;4932322;28;90302;-86
2023/09/11 06:19:01;;;;;;;4.03;3.63;;;25.50;65.00;;;;;;4931778;28;88020;-86
2023/09/11 06:21:27;;;;;;;3.75;3.10;;;25.40;64.80;;;;;;4932772;28;88508;-86
2023/09/11 06:23:53;;;;;;;9.10;4.30;;;25.40;64.80;;;;;;4932566;28;88230;-88
2023/09/11 06:26:18;;;;;;;9.60;5.07;;;25.40;62.90;;;;;;4930716;28;87428;-87
2023/09/11 06:28:44;;;;;;;9.60;4.70;;;25.40;62.30;;;;;;4910469;28;88286;-87
2023/09/11 06:31:10;;;;;;;12.18;5.00;;;25.40;61.90;;;;;;4935027;28;87715;-88
2023/09/11 06:33:36;;;;;;;11.70;4.30;;;25.30;61.80;;;;;;4916077;28;90726;-89
2023/09/11 06:36:03;;;;;;;9.25;4.35;;;25.30;62.00;;;;;;4915221;28;90665;-89
2023/09/11 06:38:28;;;;;;;13.73;5.28;;;25.30;62.10;;;;;;4911524;28;88083;-87
2023/09/11 06:40:54;;;;;;;13.23;5.13;;;25.30;62.20;;;;;;4929511;28;87408;-88
2023/09/11 06:43:20;;;;;;;10.32;4.78;;;25.40;62.10;;;;;;4929857;28;89045;-90
2023/09/11 06:45:46;;;;;;;12.23;4.80;;;25.30;62.20;;;;;;4916005;28;90717;-87
2023/09/11 06:48:12;;;;;;;10.70;4.32;;;25.40;62.00;;;;;;4933676;28;88057;-88
2023/09/11 06:50:41;;;;;;;10.13;4.70;;;25.40;62.00;;;;;;4934650;28;88004;-88
2023/09/11 06:53:09;;;;;;;14.05;4.90;;;25.30;62.00;;;;;;4930630;28;88124;-87
2023/09/11 06:55:35;;;;;;;13.00;4.28;;;25.30;61.90;;;;;;4915288;28;90915;-87
2023/09/11 06:58:02;;;;;;;12.27;4.72;;;25.20;62.30;;;;;;4930767;28;87628;-87
2023/09/11 07:00:28;;;;;;;18.00;5.32;;;25.20;62.80;;;;;;4932433;28;87241;-88
2023/09/11 07:02:56;;;;;;;10.43;4.82;;;25.30;62.70;;;;;;4928792;28;88783;-88
2023/09/11 07:05:22;;;;;;;13.55;4.43;;;25.30;62.70;;;;;;4911736;28;90547;-87
2023/09/11 07:07:48;;;;;;;14.00;4.40;;;25.30;62.40;;;;;;4914289;28;88945;-87
2023/09/11 07:10:15;;;;;;;10.57;4.78;;;25.40;62.60;;;;;;4931701;28;88737;-88
2023/09/11 07:12:45;;;;;;;10.93;4.22;;;25.40;62.20;;;;;;4933743;28;87777;-88
2023/09/11 07:15:10;;;;;;;9.93;4.55;;;25.40;62.30;;;;;;4915095;28;89745;-89
2023/09/11 07:17:36;;;;;;;7.53;3.88;;;25.40;62.60;;;;;;4934514;28;87340;-88
2023/09/11 07:20:04;;;;;;;11.00;4.38;;;25.40;62.90;;;;;;4913028;28;89548;-89
2023/09/11 07:22:30;;;;;;;11.13;4.40;;;25.40;63.00;;;;;;4915091;28;90906;-88
2023/09/11 07:24:56;;;;;;;10.77;4.55;;;25.40;63.10;;;;;;4908041;28;90823;-87
2023/09/11 07:27:22;;;;;;;9.23;4.55;;;25.40;63.30;;;;;;4935369;28;87689;-88
2023/09/11 07:29:49;;;;;;;13.10;4.45;;;25.50;63.50;;;;;;4930799;28;88494;-88
2023/09/11 07:32:15;;;;;;;37.85;8.05;;;25.50;63.50;;;;;;4929064;28;88763;-88
2023/09/11 07:34:42;;;;;;;31.95;9.25;;;25.50;63.50;;;;;;4928716;28;89321;-88
2023/09/11 07:37:07;;;;;;;38.08;9.43;;;25.60;63.30;;;;;;4909061;28;87231;-87
2023/09/11 07:39:33;;;;;;;43.22;10.43;;;25.60;63.20;;;;;;4928808;28;88656;-87
2023/09/11 07:41:59;;;;;;;48.03;12.80;;;25.60;63.40;;;;;;4911937;28;91062;-88
2023/09/11 07:44:24;;;;;;;46.20;13.18;;;25.60;63.40;;;;;;4929835;28;88189;-87
2023/09/11 07:46:50;;;;;;;39.35;10.98;;;25.50;63.50;;;;;;4928699;28;87838;-87
2023/09/11 07:49:16;;;;;;;44.13;12.25;;;25.50;63.40;;;;;;4933315;28;87045;-88
2023/09/11 07:51:42;;;;;;;45.75;13.25;;;25.50;63.50;;;;;;4932013;28;87672;-87
2023/09/11 07:54:07;;;;;;;38.88;12.00;;;25.50;63.80;;;;;;4908854;28;89923;-87
2023/09/11 07:56:33;;;;;;;39.75;11.63;;;25.50;63.70;;;;;;4908122;28;88831;-88
2023/09/11 07:59:00;;;;;;;34.95;12.65;;;25.50;63.70;;;;;;4927383;28;88905;-87
2023/09/11 08:01:26;;;;;;;28.88;10.57;;;25.50;63.50;;;;;;4930448;28;88607;-87
2023/09/11 08:03:52;;;;;;;34.70;10.57;;;25.50;63.70;;;;;;4930178;28;87781;-87
2023/09/11 08:06:18;;;;;;;29.40;10.82;;;25.50;63.80;;;;;;4909845;28;88325;-88
2023/09/11 08:08:45;;;;;;;26.80;9.88;;;25.50;63.70;;;;;;4926919;28;88735;-88
2023/09/11 08:11:15;;;;;;;33.05;11.98;;;25.50;63.80;;;;;;4930285;28;87820;-87
2023/09/11 08:13:42;;;;;;;36.97;11.93;;;25.50;63.70;;;;;;4908522;28;90744;-88
2023/09/11 08:16:08;;;;;;;27.35;10.82;;;25.60;63.70;;;;;;4913129;28;87941;-87
2023/09/11 08:18:34;;;;;;;30.35;10.43;;;25.50;63.70;;;;;;4929512;28;88709;-88
2023/09/11 08:21:00;;;;;;;26.80;10.32;;;25.60;63.80;;;;;;4928274;28;89099;-87
2023/09/11 08:23:26;;;;;;;26.83;11.00;;;25.50;63.60;;;;;;4908683;28;90416;-87
2023/09/11 08:25:59;;;;;;;20.80;9.90;;;25.60;63.70;;;;;;4913817;28;87779;-87
2023/09/11 08:28:25;;;;;;;23.77;10.30;;;25.60;63.60;;;;;;4929638;28;87006;-87
2023/09/11 08:30:50;;;;;;;27.38;10.43;;;25.60;63.60;;;;;;4913353;28;91157;-87
2023/09/11 08:33:17;;;;;;;21.58;9.30;;;25.60;63.40;;;;;;4929685;28;87767;-87
2023/09/11 08:35:47;;;;;;;25.77;10.38;;;25.60;63.60;;;;;;4912449;28;88223;-87
2023/09/11 08:38:13;;;;;;;19.73;9.48;;;25.50;63.50;;;;;;4927356;28;86742;-87
2023/09/11 08:40:39;;;;;;;27.55;9.80;;;25.60;63.50;;;;;;4930897;28;87089;-87
2023/09/11 08:43:05;;;;;;;27.75;10.35;;;25.60;63.80;;;;;;4910776;28;90770;-88
2023/09/11 08:45:31;;;;;;;26.10;9.57;;;25.60;63.40;;;;;;4931209;28;88544;-88
2023/09/11 08:47:58;;;;;;;23.58;8.95;;;25.50;63.40;;;;;;4933839;28;87048;-87
2023/09/11 08:50:32;;;;;;;23.27;8.70;;;25.60;63.50;;;;;;4914392;28;90458;-87
2023/09/11 08:53:01;;;;;;;18.77;8.55;;;25.60;63.40;;;;;;4932239;28;87851;-87
2023/09/11 08:55:29;;;;;;;22.48;9.15;;;25.60;63.50;;;;;;4929603;28;88652;-87
2023/09/11 08:57:59;;;;;;;18.17;8.52;;;25.60;63.50;;;;;;4910565;28;94068;-87
2023/09/11 09:00:27;;;;;;;;;;;25.60;63.40;;;;;;4933353;28;87844;-87
2023/09/11 09:02:53;;;;;;;16.67;8.60;;;25.60;63.50;;;;;;4915748;28;88339;-87
2023/09/11 09:05:20;;;;;;;18.63;8.35;;;25.60;63.30;;;;;;4931398;28;87951;-87
2023/09/11 09:07:47;;;;;;;15.48;7.05;;;25.60;63.40;;;;;;4938238;28;87722;-87
2023/09/11 09:10:14;;;;;;;17.27;8.18;;;25.60;63.40;;;;;;4933549;28;88835;-87
2023/09/11 09:12:41;;;;;;;16.88;8.23;;;25.60;63.30;;;;;;4932722;28;90446;-88
2023/09/11 09:15:07;;;;;;;23.17;8.95;;;25.70;63.40;;;;;;4935193;28;87202;-87
2023/09/11 09:17:33;;;;;;;14.77;7.65;;;25.60;63.30;;;;;;4915757;28;89878;-87
2023/09/11 09:19:58;;;;;;;19.85;8.70;;;25.70;63.40;;;;;;4912881;28;90592;-87
2023/09/11 09:22:24;;;;;;;18.20;8.57;;;25.70;63.20;;;;;;4931380;28;88411;-87
2023/09/11 09:24:54;;;;;;;15.13;8.02;;;25.70;63.30;;;;;;4930083;28;87749;-87
2023/09/11 09:27:25;;;;;;;16.58;7.97;;;25.70;63.30;;;;;;4936875;28;87022;-87
2023/09/11 09:29:51;;;;;;;14.30;7.65;;;25.70;63.10;;;;;;4930292;28;90803;-87
2023/09/11 09:32:17;;;;;;;13.60;7.28;;;25.70;63.00;;;;;;4932551;28;87926;-87
2023/09/11 09:34:54;;;;;;;14.55;7.25;;;25.70;62.90;;;;;;4933185;28;88495;-88
2023/09/11 09:37:21;;;;;;;16.20;7.53;;;25.70;62.90;;;;;;4928721;28;87661;-88
2023/09/11 09:39:48;;;;;;;20.13;8.00;;;25.70;63.00;;;;;;4926606;28;88104;-88
2023/09/11 09:42:14;;;;;;;18.63;7.40;;;25.70;63.00;;;;;;4930452;28;88092;-87
2023/09/11 09:44:43;;;;;;;13.82;7.63;;;25.70;63.10;;;;;;4913961;28;87201;-88
2023/09/11 09:47:15;;;;;;;14.35;7.82;;;25.70;63.70;;;;;;4914151;28;89656;-88
2023/09/11 09:50:00;;;;;;;13.02;7.10;;;25.70;63.10;;;;;;4931296;28;94701;-87
2023/09/11 09:52:28;;;;;;;14.30;7.30;;;25.70;63.10;;;;;;4930193;28;87831;-87
2023/09/11 09:55:08;;;;;;;14.98;7.43;;;25.70;63.40;;;;;;4930996;28;88682;-85
2023/09/11 09:57:34;;;;;;;15.18;7.78;;;25.70;63.40;;;;;;4930699;28;87892;-87
2023/09/11 10:00:01;;;;;;;12.65;6.80;;;25.70;63.30;;;;;;4930412;28;88529;-85
2023/09/11 10:02:32;;;;;;;13.48;7.05;;;25.80;63.50;;;;;;4930241;28;88770;-85
2023/09/11 10:05:03;;;;;;;12.40;7.05;;;25.80;63.40;;;;;;4932978;28;87778;-86
2023/09/11 10:07:41;;;;;;;16.25;7.13;;;25.70;63.70;;;;;;4933717;28;88208;-86
2023/09/11 10:10:28;;;;;;;11.75;6.93;;;25.80;63.80;;;;;;4935158;28;88152;-86
2023/09/11 10:13:00;;;;;;;17.98;7.90;;;25.70;64.10;;;;;;4927226;28;87214;-86
2023/09/11 10:15:26;;;;;;;14.45;7.18;;;25.70;64.30;;;;;;4928782;28;88187;-87
2023/09/11 10:17:54;;;;;;;12.52;7.40;;;25.80;64.50;;;;;;4913817;28;89648;-84
2023/09/11 10:20:21;;;;;;;16.90;6.93;;;25.70;64.90;;;;;;4933213;28;88455;-87
2023/09/11 10:22:46;;;;;;;14.25;7.10;;;25.70;65.00;;;;;;4931271;28;88700;-85
2023/09/11 10:25:12;;;;;;;12.00;7.20;;;25.70;65.00;;;;;;4933985;28;88004;-84
2023/09/11 10:27:39;;;;;;;13.45;6.75;;;25.80;65.00;;;;;;4928328;28;87792;-86
2023/09/11 10:30:08;;;;;;;12.13;6.88;;;25.80;65.40;;;;;;4931122;28;88388;-86
2023/09/11 10:32:39;;;;;;;;;;;25.80;65.60;;;;;;4933125;28;89602;-85
2023/09/11 10:35:06;;;;;;;14.02;7.68;;;25.90;65.40;;;;;;4932862;28;88238;-87
2023/09/11 10:37:33;;;;;;;11.82;6.53;;;25.90;65.60;;;;;;4932022;28;88625;-86
2023/09/11 10:39:59;;;;;;;12.95;7.00;;;25.90;65.60;;;;;;4929538;28;87491;-85
2023/09/11 10:42:26;;;;;;;12.57;6.22;;;25.90;65.90;;;;;;4928245;28;88294;-85
2023/09/11 10:44:54;;;;;;;10.52;5.88;;;25.90;65.90;;;;;;4926196;28;88279;-86
2023/09/11 10:47:20;;;;;;;12.15;6.03;;;25.90;65.60;;;;;;4910443;28;88163;-87
2023/09/11 10:49:49;;;;;;;12.13;6.38;;;25.90;65.70;;;;;;4927878;28;89366;-85
2023/09/11 10:52:16;;;;;;;12.20;6.68;;;25.90;66.10;;;;;;4930299;28;88286;-86
2023/09/11 10:54:42;;;;;;;9.65;5.82;;;25.90;66.60;;;;;;4933587;28;87857;-85
2023/09/11 10:57:08;;;;;;;17.20;7.40;;;26.00;67.30;;;;;;4933175;28;87783;-85
2023/09/11 10:59:34;;;;;;;12.32;6.53;;;25.90;66.00;;;;;;4930667;28;88157;-86
2023/09/11 11:02:02;;;;;;;9.27;6.25;;;25.90;66.00;;;;;;4930385;28;87746;-86
2023/09/11 11:04:31;;;;;;;10.20;6.25;;;25.90;65.90;;;;;;4929473;28;87681;-85
2023/09/11 11:07:00;;;;;;;17.17;7.40;;;25.90;66.00;;;;;;4927342;28;87209;-86
2023/09/11 11:09:28;;;;;;;11.85;7.40;;;25.90;66.00;;;;;;4925842;28;88387;-86
2023/09/11 11:11:59;;;;;;;11.07;6.23;;;25.90;66.30;;;;;;4927359;28;88222;-86
2023/09/11 11:14:25;;;;;;;10.32;6.30;;;25.90;66.30;;;;;;4931306;28;89303;-85
2023/09/11 11:17:11;;;;;;;9.55;6.03;;;25.90;66.20;;;;;;4930652;28;87213;-87
2023/09/11 11:19:39;;;;;;;9.07;6.10;;;25.90;65.90;;;;;;4928329;28;88166;-86
2023/09/11 11:22:07;;;;;;;7.67;5.77;;;25.90;65.90;;;;;;4931471;28;88176;-85
2023/09/11 11:24:57;;;;;;;25.50;6.68;;;25.90;65.80;;;;;;4936014;28;87400;-86
2023/09/11 11:27:23;;;;;;;11.93;6.35;;;25.80;65.80;;;;;;4927997;28;92107;-86
2023/09/11 11:29:49;;;;;;;12.88;6.75;;;25.90;66.40;;;;;;4926140;28;88060;-86
2023/09/11 11:32:19;;;;;;;13.05;6.10;;;25.90;66.00;;;;;;4927520;28;87530;-85
2023/09/11 11:34:47;;;;;;;9.30;6.18;;;26.00;65.60;;;;;;4925993;28;88089;-86
2023/09/11 11:37:13;;;;;;;9.57;6.38;;;26.10;65.50;;;;;;4926233;28;87983;-85
2023/09/11 11:39:39;;;;;;;9.70;5.53;;;26.30;65.10;;;;;;4910687;28;92263;-85
2023/09/11 11:42:07;;;;;;;11.02;7.15;;;26.40;65.00;;;;;;4932046;28;88432;-85
2023/09/11 11:44:34;;;;;;;13.82;6.05;;;26.40;64.70;;;;;;4911478;28;88415;-86
2023/09/11 11:47:00;;;;;;;11.05;6.60;;;26.50;64.50;;;;;;4925831;28;87303;-86
2023/09/11 11:49:26;;;;;;;9.48;6.00;;;26.50;64.30;;;;;;4930650;28;87535;-85
2023/09/11 11:51:52;;;;;;;13.25;5.95;;;26.50;64.30;;;;;;4928356;28;87853;-86
2023/09/11 11:54:26;;;;;;;12.93;6.20;;;26.50;64.40;;;;;;4931802;28;87279;-85
2023/09/11 11:57:00;;;;;;;8.25;5.78;;;26.60;64.50;;;;;;4913932;28;86804;-85
2023/09/11 11:59:33;;;;;;;11.30;6.15;;;26.60;64.60;;;;;;4928439;28;87607;-85
2023/09/11 12:02:00;;;;;;;11.68;6.25;;;26.60;64.20;;;;;;4928468;28;88298;-85
2023/09/11 12:04:26;;;;;;;10.85;6.22;;;26.60;64.10;;;;;;4914934;28;88495;-85
2023/09/11 12:06:57;;;;;;;11.65;6.05;;;26.60;63.90;;;;;;4911184;28;88383;-85
2023/09/11 12:09:23;;;;;;;12.40;6.57;;;26.60;64.00;;;;;;4911735;28;90766;-86
2023/09/11 12:11:50;;;;;;;8.70;5.82;;;26.60;63.90;;;;;;4930281;28;88032;-86
2023/09/11 12:14:17;;;;;;;13.65;5.93;;;26.70;64.00;;;;;;4912303;28;88298;-86
2023/09/11 12:16:43;;;;;;;9.98;6.75;;;26.60;63.90;;;;;;4933033;28;87890;-86
2023/09/11 12:19:09;;;;;;;7.63;5.18;;;26.70;64.00;;;;;;4927476;28;91279;-86
2023/09/11 12:21:35;;;;;;;13.15;5.97;;;26.60;63.90;;;;;;4913112;28;90379;-86
2023/09/11 12:24:01;;;;;;;10.43;5.90;;;26.70;64.00;;;;;;4927926;28;87491;-85
2023/09/11 12:26:28;;;;;;;8.48;5.18;;;26.70;63.90;;;;;;4928396;28;88036;-85
2023/09/11 12:28:54;;;;;;;8.98;5.97;;;26.70;63.90;;;;;;4914061;28;89969;-86
2023/09/11 12:31:20;;;;;;;15.35;5.80;;;26.70;64.00;;;;;;4930257;28;88873;-86
2023/09/11 12:33:59;;;;;;;9.45;5.95;;;26.70;63.90;;;;;;4912959;28;88161;-85
2023/09/11 12:36:26;;;;;;;10.43;5.93;;;26.70;64.20;;;;;;4929033;28;88041;-85
2023/09/11 12:38:51;;;;;;;8.68;5.03;;;26.70;63.90;;;;;;4934962;28;88089;-86
2023/09/11 12:41:18;;;;;;;10.43;5.90;;;26.80;63.90;;;;;;4933368;28;88000;-85
2023/09/11 12:43:44;;;;;;;8.98;5.80;;;26.70;64.00;;;;;;4932345;28;88080;-85
2023/09/11 12:46:13;;;;;;;9.50;5.28;;;26.80;64.10;;;;;;4929369;28;87427;-85
2023/09/11 12:48:46;;;;;;;9.50;5.70;;;26.70;63.90;;;;;;4933707;28;88090;-86
2023/09/11 12:51:14;;;;;;;6.45;5.30;;;26.80;64.10;;;;;;4934012;28;87711;-86
2023/09/11 12:53:40;;;;;;;7.27;5.87;;;26.80;63.80;;;;;;4914520;28;88453;-85
2023/09/11 12:56:09;;;;;;;7.30;5.35;;;26.80;64.00;;;;;;4929374;28;88121;-86
2023/09/11 12:58:37;;;;;;;8.05;5.22;;;26.80;64.00;;;;;;4932791;28;88365;-87
2023/09/11 13:01:02;;;;;;;9.77;5.70;;;26.80;63.80;;;;;;4936690;28;88736;-86